Time;durP1;ratioP1;P1;durP2;ratioP2;P2;SDS_P1;SDS_P2;PMS_P1;PMS_P2;Temp;Humidity;BMP_temperature;BMP_pressure;BME280_temperature;BME280_humidity;BME280_pressure;Samples;Min_cycle;Max_cycle;Signal;HPM_P1;HPM_P2
2022/03/16 00:00:03;;;;;;;32.78;23.23;;;281.90;1843.20;;;;;;5010211;28;20033;-55
2022/03/16 00:02:29;;;;;;;38.38;27.38;;;282.00;1792.00;;;;;;5010287;28;20033;-56
2022/03/16 00:04:56;;;;;;;49.10;30.27;;;282.00;1817.60;;;;;;5010322;28;20034;-55
2022/03/16 00:07:22;;;;;;;54.60;40.30;;;282.10;1792.00;;;;;;5010620;28;20034;-55
2022/03/16 00:09:49;;;;;;;28.63;20.20;;;282.10;1792.00;;;;;;5010277;28;20033;-54
2022/03/16 00:12:15;;;;;;;33.25;20.80;;;282.10;1766.40;;;;;;5010124;28;20026;-55
2022/03/16 00:14:42;;;;;;;33.10;19.42;;;282.00;1792.00;;;;;;5009953;28;20488;-54
2022/03/16 00:17:09;;;;;;;33.40;20.58;;;282.10;1792.00;;;;;;5009848;28;20050;-55
2022/03/16 00:19:35;;;;;;;24.30;18.50;;;282.00;1817.60;;;;;;5009973;28;20117;-56
2022/03/16 00:22:03;;;;;;;26.50;17.55;;;281.80;1817.60;;;;;;5009888;28;20419;-55
2022/03/16 00:24:29;;;;;;;22.15;16.30;;;281.90;1792.00;;;;;;5009872;28;20022;-55
2022/03/16 00:26:55;;;;;;;28.60;17.98;;;282.00;1792.00;;;;;;5005245;28;20479;-55
2022/03/16 00:29:21;;;;;;;42.72;26.60;;;282.00;1792.00;;;;;;5008513;28;20034;-55
2022/03/16 00:31:46;;;;;;;47.67;29.58;;;282.10;1792.00;;;;;;5009694;28;20030;-56
2022/03/16 00:34:13;;;;;;;25.25;17.08;;;282.00;1817.60;;;;;;5009999;28;20105;-55
2022/03/16 00:36:39;;;;;;;19.85;14.40;;;281.90;1843.20;;;;;;5009596;28;20051;-55
2022/03/16 00:39:05;;;;;;;20.27;14.80;;;256.90;1868.80;;;;;;5009270;28;20278;-56
2022/03/16 00:41:31;;;;;;;19.25;12.80;;;256.80;1868.80;;;;;;4992039;28;20041;-54
2022/03/16 00:43:57;;;;;;;22.83;14.30;;;256.70;1920.00;;;;;;5009472;28;20034;-54
2022/03/16 00:46:23;;;;;;;19.48;14.85;;;256.60;1945.60;;;;;;5009787;28;20392;-55
2022/03/16 00:48:48;;;;;;;33.28;21.73;;;256.70;1945.60;;;;;;5009328;28;20108;-54
2022/03/16 00:51:14;;;;;;;35.38;22.48;;;256.80;1945.60;;;;;;5009610;28;20080;-54
2022/03/16 00:53:41;;;;;;;23.80;16.10;;;256.60;2048.00;;;;;;5009083;28;20393;-55
2022/03/16 00:56:08;;;;;;;33.15;17.10;;;256.50;2048.00;;;;;;5009172;28;20484;-53
2022/03/16 00:58:35;;;;;;;39.33;24.55;;;256.80;1971.20;;;;;;5008585;28;20026;-55
2022/03/16 01:01:01;;;;;;;61.55;32.78;;;256.90;1920.00;;;;;;5009418;28;20459;-55
2022/03/16 01:03:30;;;;;;;35.47;25.10;;;281.80;1920.00;;;;;;4991741;28;20026;-55
2022/03/16 01:05:55;;;;;;;26.13;16.70;;;281.70;1996.80;;;;;;5008726;28;20051;-57
2022/03/16 01:08:21;;;;;;;25.35;16.27;;;281.60;1996.80;;;;;;5009230;28;20030;-55
2022/03/16 01:10:47;;;;;;;20.58;14.07;;;281.70;1971.20;;;;;;5008930;28;20504;-54
2022/03/16 01:13:13;;;;;;;22.50;14.45;;;281.80;1971.20;;;;;;5009379;28;20080;-54
2022/03/16 01:15:38;;;;;;;25.73;16.08;;;281.60;2048.00;;;;;;5009077;28;20468;-55
2022/03/16 01:18:05;;;;;;;23.88;15.27;;;281.60;2073.60;;;;;;5008673;28;20456;-55
2022/03/16 01:20:31;;;;;;;23.98;16.05;;;256.90;2048.00;;;;;;5008951;28;20439;-55
2022/03/16 01:22:56;;;;;;;26.08;16.42;;;281.60;2022.40;;;;;;5008577;28;20054;-54
2022/03/16 01:25:22;;;;;;;29.55;16.35;;;281.90;1843.20;;;;;;4992914;28;20072;-54
2022/03/16 01:27:48;;;;;;;32.50;20.08;;;282.10;1792.00;;;;;;5010635;28;20058;-54
2022/03/16 01:30:14;;;;;;;26.17;16.33;;;282.20;1766.40;;;;;;5010584;28;20030;-54
2022/03/16 01:32:41;;;;;;;19.13;12.32;;;282.30;1766.40;;;;;;5010483;28;20030;-54
2022/03/16 01:35:08;;;;;;;13.77;9.18;;;282.30;1817.60;;;;;;5010369;28;20034;-54
2022/03/16 01:37:34;;;;;;;20.48;12.27;;;282.50;1740.80;;;;;;5010569;28;20072;-55
2022/03/16 01:40:00;;;;;;;20.05;13.15;;;282.30;1843.20;;;;;;5009741;28;20080;-55
2022/03/16 01:42:27;;;;;;;20.40;13.40;;;282.10;1945.60;;;;;;5010238;28;20076;-54
2022/03/16 01:44:57;;;;;;;32.05;18.45;;;282.10;1868.80;;;;;;5010326;28;20030;-54
2022/03/16 01:47:24;;;;;;;23.02;14.55;;;281.80;1996.80;;;;;;5010398;28;20076;-54
2022/03/16 01:49:53;;;;;;;19.52;13.48;;;281.70;1996.80;;;;;;5010076;28;20026;-54
2022/03/16 01:52:23;;;;;;;27.20;17.20;;;256.90;1996.80;;;;;;5009959;28;20061;-54
2022/03/16 01:54:49;;;;;;;34.55;21.52;;;281.80;1971.20;;;;;;5010136;28;20108;-54
2022/03/16 01:57:15;;;;;;;30.48;19.80;;;281.90;1920.00;;;;;;5010101;28;20022;-54
2022/03/16 01:59:42;;;;;;;61.45;32.90;;;282.10;1894.40;;;;;;5010118;28;20034;-53
2022/03/16 02:02:09;;;;;;;47.58;27.02;;;282.10;1894.40;;;;;;5010017;28;20029;-55
2022/03/16 02:04:35;;;;;;;36.65;21.42;;;282.20;1920.00;;;;;;5010293;28;20480;-54
2022/03/16 02:07:02;;;;;;;23.77;14.88;;;282.20;1920.00;;;;;;4999663;28;20033;-54
2022/03/16 02:09:28;;;;;;;18.33;13.90;;;282.20;1945.60;;;;;;5000717;28;20052;-54
2022/03/16 02:11:54;;;;;;;21.63;13.60;;;282.20;1945.60;;;;;;5008699;28;20030;-54
2022/03/16 02:14:19;;;;;;;22.40;15.13;;;282.20;1920.00;;;;;;5013951;28;20033;-54
2022/03/16 02:16:46;;;;;;;54.25;30.55;;;282.20;1945.60;;;;;;5013778;28;20550;-55
2022/03/16 02:19:12;;;;;;;67.05;36.83;;;282.20;1920.00;;;;;;5013831;28;20097;-54
2022/03/16 02:21:42;;;;;;;60.80;32.25;;;282.30;1868.80;;;;;;5013551;28;20062;-54
2022/03/16 02:24:08;;;;;;;45.45;27.40;;;282.40;1817.60;;;;;;5013408;28;20026;-54
2022/03/16 02:26:35;;;;;;;68.13;29.05;;;282.50;1766.40;;;;;;4995911;28;20037;-54
2022/03/16 02:29:01;;;;;;;76.05;33.75;;;282.50;1817.60;;;;;;5013823;28;20026;-55
2022/03/16 02:31:27;;;;;;;47.53;23.05;;;307.20;1792.00;;;;;;5013475;28;20080;-54
2022/03/16 02:33:53;;;;;;;40.60;20.83;;;307.20;1766.40;;;;;;5013652;28;20472;-54
2022/03/16 02:36:19;;;;;;;27.20;15.13;;;307.20;1817.60;;;;;;5013581;28;20037;-54
2022/03/16 02:38:45;;;;;;;23.30;15.65;;;307.20;1894.40;;;;;;5013189;28;20041;-55
2022/03/16 02:41:11;;;;;;;26.45;14.48;;;282.30;1945.60;;;;;;5013661;28;20532;-54
2022/03/16 02:43:37;;;;;;;28.40;14.98;;;282.20;1945.60;;;;;;5013224;28;20022;-55
2022/03/16 02:46:03;;;;;;;18.38;12.32;;;282.10;1945.60;;;;;;5013412;28;20022;-54
2022/03/16 02:48:29;;;;;;;18.95;12.32;;;282.20;1894.40;;;;;;5013338;28;20452;-55
2022/03/16 02:50:55;;;;;;;18.40;11.88;;;282.20;1868.80;;;;;;5013353;28;20113;-55
2022/03/16 02:53:21;;;;;;;25.42;14.68;;;282.30;1920.00;;;;;;5013404;28;20022;-54
2022/03/16 02:55:47;;;;;;;24.05;13.70;;;282.30;1945.60;;;;;;5012966;28;20030;-54
2022/03/16 02:58:14;;;;;;;19.13;12.60;;;282.40;1894.40;;;;;;5013182;28;20033;-55
2022/03/16 03:00:40;;;;;;;20.27;14.32;;;282.50;1868.80;;;;;;5013036;28;20515;-55
2022/03/16 03:03:06;;;;;;;18.80;12.63;;;282.40;1868.80;;;;;;5012770;28;20384;-55
2022/03/16 03:05:32;;;;;;;19.63;12.25;;;282.40;1894.40;;;;;;5013175;28;20030;-55
2022/03/16 03:07:59;;;;;;;18.75;11.70;;;282.30;1894.40;;;;;;5012725;28;20029;-55
2022/03/16 03:10:25;;;;;;;32.53;12.23;;;282.00;1945.60;;;;;;4995144;28;20037;-55
2022/03/16 03:12:51;;;;;;;21.23;13.05;;;281.90;1971.20;;;;;;5012893;28;20025;-55
2022/03/16 03:15:17;;;;;;;21.10;13.05;;;282.10;1971.20;;;;;;5012569;28;20024;-55
2022/03/16 03:17:43;;;;;;;23.20;12.63;;;282.20;1945.60;;;;;;5012775;28;20112;-55
2022/03/16 03:20:09;;;;;;;18.98;13.27;;;282.30;1920.00;;;;;;5012397;28;20037;-54
2022/03/16 03:22:35;;;;;;;21.60;14.25;;;282.20;1971.20;;;;;;5011231;28;20133;-55
2022/03/16 03:25:02;;;;;;;22.95;13.98;;;281.90;2048.00;;;;;;5012783;28;20233;-54
2022/03/16 03:27:30;;;;;;;30.42;14.10;;;282.00;1996.80;;;;;;5012454;28;20018;-55
2022/03/16 03:29:56;;;;;;;18.92;14.15;;;282.10;1971.20;;;;;;5012486;28;20108;-54
2022/03/16 03:32:22;;;;;;;53.35;17.67;;;282.10;2022.40;;;;;;5012380;28;20022;-55
2022/03/16 03:34:51;;;;;;;29.15;15.75;;;282.00;2022.40;;;;;;5012162;28;20054;-55
2022/03/16 03:37:18;;;;;;;41.20;16.52;;;282.10;1996.80;;;;;;5012353;28;20029;-55
2022/03/16 03:39:44;;;;;;;26.85;14.70;;;282.10;2022.40;;;;;;5012261;28;20384;-55
2022/03/16 03:42:10;;;;;;;28.50;14.38;;;282.00;2073.60;;;;;;5012347;28;20018;-55
2022/03/16 03:44:37;;;;;;;61.30;29.38;;;282.10;2073.60;;;;;;5012172;28;20040;-55
2022/03/16 03:47:07;;;;;;;46.88;25.98;;;282.20;2048.00;;;;;;5012462;28;20081;-55
2022/03/16 03:49:34;;;;;;;92.82;42.50;;;282.00;2048.00;;;;;;5012298;28;20535;-55
2022/03/16 03:52:00;;;;;;;64.10;30.30;;;282.10;2048.00;;;;;;5012032;28;20034;-54
2022/03/16 03:54:26;;;;;;;58.80;33.80;;;282.10;2022.40;;;;;;5011861;28;20049;-55
2022/03/16 03:56:52;;;;;;;78.60;36.58;;;282.20;1945.60;;;;;;5012040;28;20033;-55
2022/03/16 03:59:17;;;;;;;100.88;47.58;;;282.20;1971.20;;;;;;5011658;28;20045;-55
2022/03/16 04:01:43;;;;;;;71.60;29.50;;;282.20;1971.20;;;;;;5011941;28;20053;-55
2022/03/16 04:04:09;;;;;;;36.00;16.83;;;282.30;1894.40;;;;;;5011609;28;20032;-55
2022/03/16 04:06:36;;;;;;;36.33;15.77;;;282.40;1792.00;;;;;;5011662;28;20033;-56
2022/03/16 04:09:02;;;;;;;25.35;10.63;;;307.20;1766.40;;;;;;5011822;28;20109;-54
2022/03/16 04:11:27;;;;;;;27.45;10.05;;;307.40;1715.20;;;;;;5011643;28;20060;-55
2022/03/16 04:13:53;;;;;;;104.93;43.30;;;307.50;1689.60;;;;;;5011615;28;20436;-55
2022/03/16 04:16:19;;;;;;;108.13;60.95;;;307.40;1817.60;;;;;;5011400;28;20028;-55
2022/03/16 04:18:44;;;;;;;91.43;51.90;;;281.70;2227.20;;;;;;5011429;28;20032;-55
2022/03/16 04:21:10;;;;;;;53.55;36.30;;;256.80;2252.80;;;;;;5011567;28;20093;-55
2022/03/16 04:23:36;;;;;;;56.53;31.83;;;256.80;2252.80;;;;;;5011107;28;20104;-55
2022/03/16 04:26:01;;;;;;;65.10;36.85;;;256.60;2252.80;;;;;;5011671;28;20092;-55
2022/03/16 04:28:27;;;;;;;87.05;48.22;;;256.60;2252.80;;;;;;5011206;28;20398;-55
2022/03/16 04:30:53;;;;;;;82.38;48.85;;;256.50;2252.80;;;;;;5011467;28;20026;-54
2022/03/16 04:33:19;;;;;;;122.78;72.80;;;256.60;2252.80;;;;;;5010992;28;20376;-55
2022/03/16 04:35:45;;;;;;;108.30;52.35;;;256.50;2252.80;;;;;;5011307;28;20033;-55
2022/03/16 04:38:10;;;;;;;81.72;49.45;;;256.70;2252.80;;;;;;5011508;28;20492;-55
2022/03/16 04:40:36;;;;;;;140.02;81.72;;;256.70;2252.80;;;;;;5010889;28;20033;-55
2022/03/16 04:43:02;;;;;;;111.80;62.97;;;256.90;2252.80;;;;;;5010768;28;20076;-55
2022/03/16 04:45:28;;;;;;;109.97;60.17;;;281.60;2278.40;;;;;;5010964;28;20033;-55
2022/03/16 04:47:53;;;;;;;109.78;61.95;;;281.70;2278.40;;;;;;5011148;28;20026;-55
2022/03/16 04:50:20;;;;;;;114.10;66.13;;;281.70;2278.40;;;;;;5010873;28;20461;-55
2022/03/16 04:52:47;;;;;;;122.95;73.55;;;281.70;2278.40;;;;;;5010653;28;20057;-55
2022/03/16 04:55:14;;;;;;;79.78;45.47;;;281.80;2278.40;;;;;;5011156;28;20030;-54
2022/03/16 04:57:40;;;;;;;72.97;43.97;;;281.80;2278.40;;;;;;4993608;28;20380;-55
2022/03/16 05:00:07;;;;;;;63.22;36.80;;;281.80;2278.40;;;;;;5010800;28;20065;-55
2022/03/16 05:02:33;;;;;;;53.00;33.05;;;281.90;2278.40;;;;;;5011003;28;20029;-55
2022/03/16 05:04:58;;;;;;;70.15;41.03;;;281.60;2278.40;;;;;;5010653;28;20031;-55
2022/03/16 05:07:24;;;;;;;67.47;31.77;;;256.70;2252.80;;;;;;5010955;28;20040;-54
2022/03/16 05:09:50;;;;;;;71.15;39.70;;;256.90;2252.80;;;;;;5010497;28;20088;-55
2022/03/16 05:12:16;;;;;;;57.13;28.00;;;256.90;2252.80;;;;;;5010662;28;20022;-55
2022/03/16 05:14:41;;;;;;;185.52;108.13;;;281.60;2278.40;;;;;;5010746;28;20038;-55
2022/03/16 05:17:07;;;;;;;55.15;30.35;;;281.80;2278.40;;;;;;5001617;28;20060;-55
2022/03/16 05:19:34;;;;;;;59.50;34.20;;;281.90;2278.40;;;;;;4991036;28;20045;-54
2022/03/16 05:22:00;;;;;;;89.70;51.25;;;282.00;2278.40;;;;;;4995338;28;20046;-55
2022/03/16 05:24:26;;;;;;;76.25;48.42;;;281.60;2278.40;;;;;;4991877;28;20100;-55
2022/03/16 05:26:52;;;;;;;87.95;53.50;;;256.90;2252.80;;;;;;4990098;28;20029;-54
2022/03/16 05:29:18;;;;;;;84.53;52.20;;;256.70;2252.80;;;;;;4990401;28;20031;-55
2022/03/16 05:31:44;;;;;;;94.72;54.05;;;256.50;2252.80;;;;;;4990946;28;20042;-55
2022/03/16 05:34:10;;;;;;;113.90;70.55;;;256.30;2252.80;;;;;;4990879;28;20026;-55
2022/03/16 05:36:36;;;;;;;128.95;86.53;;;256.90;2252.80;;;;;;4990487;28;20026;-55
2022/03/16 05:39:06;;;;;;;99.70;58.95;;;281.60;2278.40;;;;;;4990948;28;20054;-55
2022/03/16 05:41:32;;;;;;;102.32;67.40;;;281.70;2278.40;;;;;;4990973;28;20057;-54
2022/03/16 05:43:58;;;;;;;161.15;98.72;;;256.90;2252.80;;;;;;4990488;28;20372;-55
2022/03/16 05:46:24;;;;;;;142.85;91.57;;;256.50;2252.80;;;;;;4990355;28;20052;-54
2022/03/16 05:48:50;;;;;;;174.18;119.35;;;256.80;2252.80;;;;;;4990519;28;20070;-55
2022/03/16 05:51:15;;;;;;;160.77;102.65;;;256.90;2252.80;;;;;;4990353;28;20030;-55
2022/03/16 05:53:41;;;;;;;152.43;108.10;;;281.70;2278.40;;;;;;4990765;28;20045;-55
2022/03/16 05:56:07;;;;;;;141.10;101.32;;;281.70;2278.40;;;;;;4990378;28;20389;-55
2022/03/16 05:58:32;;;;;;;144.15;105.78;;;281.90;2278.40;;;;;;4990720;28;20077;-55
2022/03/16 06:00:58;;;;;;;138.40;94.35;;;282.00;2278.40;;;;;;4990458;28;20062;-55
2022/03/16 06:03:24;;;;;;;139.10;100.32;;;282.10;2278.40;;;;;;4990692;28;20469;-54
2022/03/16 06:05:50;;;;;;;154.38;112.05;;;282.10;2278.40;;;;;;4990225;28;20022;-54
2022/03/16 06:08:15;;;;;;;150.65;104.32;;;282.30;2278.40;;;;;;4990187;28;20469;-55
2022/03/16 06:10:41;;;;;;;139.02;94.07;;;282.40;2278.40;;;;;;4990633;28;20026;-55
2022/03/16 06:13:07;;;;;;;98.38;62.58;;;282.50;2278.40;;;;;;4990406;28;20026;-54
2022/03/16 06:15:44;;;;;;;91.18;59.67;;;307.40;2304.00;;;;;;4990554;28;20045;-55
2022/03/16 06:18:11;;;;;;;96.05;57.28;;;307.60;2304.00;;;;;;4990292;28;20038;-55
2022/03/16 06:20:37;;;;;;;105.85;69.10;;;307.80;2278.40;;;;;;4990031;28;20146;-55
2022/03/16 06:23:05;;;;;;;264.58;147.98;;;307.80;2304.00;;;;;;4990446;28;20054;-54
2022/03/16 06:25:34;;;;;;;71.10;44.17;;;307.90;2304.00;;;;;;4990365;28;20389;-54
2022/03/16 06:28:00;;;;;;;68.28;47.80;;;308.00;2304.00;;;;;;4995168;28;20117;-55
2022/03/16 06:30:25;;;;;;;55.97;35.40;;;308.10;2304.00;;;;;;4998665;28;20058;-55
2022/03/16 06:32:51;;;;;;;44.38;26.42;;;308.10;2304.00;;;;;;4999713;28;20105;-53
2022/03/16 06:35:17;;;;;;;41.13;23.27;;;332.90;2329.60;;;;;;5000056;28;20588;-55
2022/03/16 06:37:44;;;;;;;143.13;91.32;;;333.00;2278.40;;;;;;4997952;28;20105;-53
2022/03/16 06:40:11;;;;;;;72.85;43.67;;;333.20;2278.40;;;;;;4989991;28;20124;-53
2022/03/16 06:42:54;;;;;;;44.40;29.05;;;333.40;2252.80;;;;;;4989997;28;20029;-57
2022/03/16 06:45:22;;;;;;;65.45;41.92;;;333.40;2176.00;;;;;;4990129;28;20026;-53
2022/03/16 06:47:48;;;;;;;51.25;36.17;;;333.60;2099.20;;;;;;4989833;28;20027;-54
2022/03/16 06:50:14;;;;;;;56.75;39.53;;;358.60;2022.40;;;;;;4990107;28;20373;-53
2022/03/16 06:52:41;;;;;;;160.48;117.00;;;359.00;1996.80;;;;;;4989775;28;20077;-53
2022/03/16 06:55:08;;;;;;;104.13;68.50;;;358.90;2048.00;;;;;;4989899;28;20026;-54
2022/03/16 06:57:34;;;;;;;57.58;39.42;;;359.10;1971.20;;;;;;4991926;28;20073;-56
2022/03/16 07:00:00;;;;;;;56.28;46.80;;;359.00;1894.40;;;;;;4993308;28;20045;-53
2022/03/16 07:02:26;;;;;;;59.25;53.47;;;384.00;1740.80;;;;;;4993324;28;20050;-53
2022/03/16 07:04:53;;;;;;;27.20;16.80;;;384.10;1715.20;;;;;;4993373;28;20069;-54
2022/03/16 07:07:18;;;;;;;39.10;25.58;;;384.40;1664.00;;;;;;4993145;28;20030;-55
2022/03/16 07:09:44;;;;;;;62.95;49.97;;;384.80;1689.60;;;;;;4993320;28;20070;-54
2022/03/16 07:12:10;;;;;;;44.67;28.50;;;384.70;1868.80;;;;;;4992978;28;20023;-53
2022/03/16 07:14:37;;;;;;;50.60;32.03;;;384.20;1843.20;;;;;;4993098;28;20022;-54
2022/03/16 07:17:03;;;;;;;47.53;25.33;;;384.10;1894.40;;;;;;4993400;28;20072;-53
2022/03/16 07:19:29;;;;;;;27.67;20.08;;;384.10;1920.00;;;;;;4992846;28;20085;-53
2022/03/16 07:21:59;;;;;;;28.13;18.30;;;384.10;1792.00;;;;;;4992752;28;20038;-53
2022/03/16 07:24:25;;;;;;;29.38;21.65;;;384.30;1766.40;;;;;;4992959;28;20050;-54
2022/03/16 07:26:53;;;;;;;31.90;22.45;;;384.30;1689.60;;;;;;4992974;28;20037;-53
2022/03/16 07:29:19;;;;;;;29.95;24.58;;;384.50;1638.40;;;;;;4992745;28;20354;-53
2022/03/16 07:31:45;;;;;;;30.52;17.05;;;384.90;1638.40;;;;;;4992860;28;20027;-54
2022/03/16 07:34:12;;;;;;;35.25;15.35;;;409.60;1664.00;;;;;;4992902;28;20050;-54
2022/03/16 07:36:38;;;;;;;29.83;16.05;;;409.90;1587.20;;;;;;4992705;28;20137;-54
2022/03/16 07:39:03;;;;;;;24.98;13.35;;;410.00;1561.60;;;;;;4975066;28;20156;-54
2022/03/16 07:41:29;;;;;;;27.08;15.30;;;410.20;1587.20;;;;;;4992725;28;20494;-54
2022/03/16 07:43:56;;;;;;;23.45;11.23;;;410.20;1561.60;;;;;;4992869;28;20022;-55
2022/03/16 07:46:22;;;;;;;35.03;24.02;;;410.30;1561.60;;;;;;4992774;28;20022;-53
2022/03/16 07:48:47;;;;;;;44.22;22.50;;;410.30;1561.60;;;;;;4992360;28;20030;-54
2022/03/16 07:51:13;;;;;;;62.55;39.13;;;410.40;1561.60;;;;;;4992685;28;20623;-55
2022/03/16 07:53:39;;;;;;;112.60;63.70;;;410.30;1612.80;;;;;;4992387;28;20547;-53
2022/03/16 07:56:06;;;;;;;69.15;41.42;;;435.20;1612.80;;;;;;4992504;28;20023;-54
2022/03/16 07:58:33;;;;;;;43.65;25.05;;;435.30;1612.80;;;;;;4992601;28;20053;-56
2022/03/16 08:00:59;;;;;;;38.05;24.67;;;435.60;1587.20;;;;;;4974631;28;20069;-58
2022/03/16 08:03:26;;;;;;;46.30;27.63;;;435.60;1587.20;;;;;;4992230;28;20408;-59
2022/03/16 08:05:52;;;;;;;36.53;24.95;;;435.80;1612.80;;;;;;4992307;28;20093;-59
2022/03/16 08:08:18;;;;;;;38.20;20.05;;;435.90;1612.80;;;;;;4991446;28;20113;-57
2022/03/16 08:10:44;;;;;;;37.40;20.95;;;435.80;1638.40;;;;;;4992287;28;20049;-55
2022/03/16 08:13:10;;;;;;;39.13;24.48;;;435.70;1612.80;;;;;;4991959;28;20436;-56
2022/03/16 08:15:36;;;;;;;27.40;22.08;;;435.70;1587.20;;;;;;4992071;28;20467;-54
2022/03/16 08:18:01;;;;;;;21.10;14.38;;;435.60;1587.20;;;;;;4992107;28;20110;-54
2022/03/16 08:20:27;;;;;;;25.48;19.58;;;435.80;1612.80;;;;;;4991604;28;20113;-54
2022/03/16 08:22:56;;;;;;;26.95;16.85;;;436.10;1612.80;;;;;;4991876;28;20073;-58
2022/03/16 08:25:22;;;;;;;25.38;13.98;;;460.80;1561.60;;;;;;4991872;28;20026;-56
2022/03/16 08:27:48;;;;;;;23.02;15.45;;;460.80;1536.00;;;;;;4991577;28;20034;-53
2022/03/16 08:30:15;;;;;;;26.52;20.70;;;460.80;1536.00;;;;;;4991933;28;20030;-53
2022/03/16 08:32:42;;;;;;;29.30;15.80;;;460.80;1536.00;;;;;;4991760;28;20030;-54
2022/03/16 08:35:08;;;;;;;30.65;16.98;;;436.10;1484.80;;;;;;4991802;28;20027;-56
2022/03/16 08:37:38;;;;;;;31.85;20.83;;;460.90;1510.40;;;;;;4991833;28;20077;-53
2022/03/16 08:40:05;;;;;;;45.50;24.25;;;461.10;1484.80;;;;;;4991602;28;20481;-54
2022/03/16 08:42:30;;;;;;;36.65;23.88;;;461.10;1484.80;;;;;;4991572;28;20110;-54
2022/03/16 08:44:56;;;;;;;43.15;26.80;;;461.10;1484.80;;;;;;4991273;28;20035;-54
2022/03/16 08:47:22;;;;;;;31.38;19.02;;;461.00;1484.80;;;;;;4991448;28;20077;-53
2022/03/16 08:49:51;;;;;;;27.65;17.35;;;461.20;1459.20;;;;;;4991203;28;20034;-54
2022/03/16 08:52:17;;;;;;;21.02;13.98;;;461.30;1433.60;;;;;;4991183;28;20034;-54
2022/03/16 08:54:44;;;;;;;30.95;16.83;;;461.20;1433.60;;;;;;4991293;28;20092;-55
2022/03/16 08:57:10;;;;;;;73.85;33.03;;;461.20;1433.60;;;;;;4991115;28;20031;-53
2022/03/16 08:59:37;;;;;;;103.60;55.25;;;461.20;1433.60;;;;;;4991028;28;20030;-55
2022/03/16 09:02:03;;;;;;;55.88;28.33;;;461.20;1408.00;;;;;;4991361;28;20030;-53
2022/03/16 09:04:29;;;;;;;30.77;17.75;;;461.30;1382.40;;;;;;4991013;28;20034;-53
2022/03/16 09:06:55;;;;;;;65.10;33.55;;;461.30;1408.00;;;;;;4991370;28;20030;-53
2022/03/16 09:09:21;;;;;;;136.45;75.38;;;461.40;1382.40;;;;;;4973426;28;20034;-53
2022/03/16 09:11:48;;;;;;;146.15;81.93;;;461.40;1382.40;;;;;;4973265;28;20047;-54
2022/03/16 09:14:14;;;;;;;30.83;19.25;;;461.50;1305.60;;;;;;4991005;28;20026;-53
2022/03/16 09:16:40;;;;;;;24.73;11.73;;;461.70;1280.00;;;;;;4972872;28;20040;-53
2022/03/16 09:19:06;;;;;;;50.92;21.65;;;461.60;1280.00;;;;;;4990207;28;20042;-54
2022/03/16 09:21:32;;;;;;;28.88;11.10;;;461.50;1228.80;;;;;;4990591;28;20038;-54
2022/03/16 09:23:57;;;;;;;69.65;43.20;;;461.40;1203.20;;;;;;4990715;28;20485;-56
2022/03/16 09:26:23;;;;;;;33.22;21.92;;;461.20;1203.20;;;;;;4990971;28;20065;-54
2022/03/16 09:28:49;;;;;;;29.65;15.43;;;461.30;1203.20;;;;;;4990576;28;20473;-53
2022/03/16 09:31:15;;;;;;;37.83;23.70;;;461.30;1203.20;;;;;;4990609;28;20081;-54
2022/03/16 09:33:42;;;;;;;42.45;14.35;;;461.30;1203.20;;;;;;4990754;28;20026;-55
2022/03/16 09:36:10;;;;;;;21.60;14.10;;;461.20;1203.20;;;;;;4990535;28;20053;-53
2022/03/16 09:38:36;;;;;;;13.15;6.10;;;461.10;1228.80;;;;;;4990402;28;20022;-55
2022/03/16 09:41:02;;;;;;;38.30;23.48;;;461.00;1228.80;;;;;;4990771;28;20113;-54
2022/03/16 09:43:33;;;;;;;65.60;38.72;;;461.10;1203.20;;;;;;4990577;28;20516;-54
2022/03/16 09:46:11;;;;;;;96.07;64.82;;;461.20;1228.80;;;;;;4990382;28;20465;-54
2022/03/16 09:48:41;;;;;;;81.15;54.40;;;461.30;1228.80;;;;;;4990395;28;20496;-54
2022/03/16 09:51:09;;;;;;;72.63;49.70;;;461.30;1228.80;;;;;;4990237;28;20114;-54
2022/03/16 09:53:35;;;;;;;48.88;31.80;;;461.40;1228.80;;;;;;4973398;28;20030;-54
2022/03/16 09:56:01;;;;;;;60.40;37.15;;;461.30;1254.40;;;;;;4990651;28;20018;-53
2022/03/16 09:58:27;;;;;;;10.40;6.93;;;461.30;1228.80;;;;;;4990315;28;20026;-53
2022/03/16 10:00:53;;;;;;;18.92;12.07;;;461.20;1203.20;;;;;;4990442;28;20084;-53
2022/03/16 10:03:22;;;;;;;17.55;11.55;;;461.20;1228.80;;;;;;4990179;28;20022;-53
2022/03/16 10:05:48;;;;;;;16.98;10.68;;;461.20;1228.80;;;;;;4990484;28;20396;-53
2022/03/16 10:08:14;;;;;;;9.23;7.30;;;461.20;1228.80;;;;;;4990504;28;20026;-53
2022/03/16 10:13:25;;;;;;;15.13;7.18;;;461.00;1228.80;;;;;;4990363;28;20180;-53
2022/03/16 10:15:52;;;;;;;8.55;5.60;;;461.00;1228.80;;;;;;4990272;28;20393;-53
2022/03/16 10:18:25;;;;;;;17.33;9.63;;;460.90;1228.80;;;;;;4990212;28;20469;-53
2022/03/16 10:20:52;;;;;;;22.90;12.00;;;461.00;1228.80;;;;;;4990462;28;20042;-53
2022/03/16 10:23:24;;;;;;;26.05;18.95;;;461.00;1228.80;;;;;;4988998;28;20108;-53
2022/03/16 10:25:53;;;;;;;19.50;12.93;;;460.80;1228.80;;;;;;5009962;28;20037;-55
2022/03/16 10:28:23;;;;;;;19.52;10.10;;;460.80;1228.80;;;;;;5005380;28;20101;-54
2022/03/16 10:30:50;;;;;;;12.35;7.68;;;460.90;1254.40;;;;;;4990656;28;20065;-53
2022/03/16 10:33:16;;;;;;;10.10;7.10;;;461.00;1228.80;;;;;;4994006;28;20037;-53
2022/03/16 10:36:00;;;;;;;16.30;11.27;;;460.90;1228.80;;;;;;4994055;28;20461;-52
2022/03/16 10:38:27;;;;;;;19.95;12.23;;;461.00;1228.80;;;;;;4993652;28;20065;-53
2022/03/16 10:41:14;;;;;;;15.98;9.75;;;460.90;1228.80;;;;;;4993757;28;20548;-53
2022/03/16 10:46:34;;;;;;;17.15;8.98;;;436.10;1228.80;;;;;;4993997;28;20246;-54
2022/03/16 10:49:12;;;;;;;15.00;8.30;;;460.80;1254.40;;;;;;4993535;28;20026;-53
2022/03/16 10:51:39;;;;;;;12.65;9.52;;;436.10;1228.80;;;;;;4993381;28;20484;-53
2022/03/16 10:54:06;;;;;;;10.63;7.18;;;436.10;1228.80;;;;;;4993697;28;20113;-53
2022/03/16 10:56:33;;;;;;;19.00;11.60;;;436.10;1203.20;;;;;;4993723;28;20030;-56
2022/03/16 10:59:00;;;;;;;22.25;13.32;;;436.10;1254.40;;;;;;4993375;28;20029;-55
2022/03/16 11:01:27;;;;;;;19.10;13.15;;;436.10;1280.00;;;;;;4993307;28;20026;-54
2022/03/16 11:03:58;;;;;;;26.42;15.35;;;436.10;1228.80;;;;;;4993476;28;20205;-53
2022/03/16 11:06:25;;;;;;;22.35;13.82;;;436.00;1228.80;;;;;;4993633;28;20404;-53
2022/03/16 11:08:51;;;;;;;28.23;15.90;;;435.90;1254.40;;;;;;4993326;28;20030;-54
2022/03/16 11:14:08;;;;;;;32.38;19.70;;;435.80;1254.40;;;;;;4993642;28;20096;-53
2022/03/16 11:16:34;;;;;;;28.45;20.35;;;435.70;1254.40;;;;;;4993314;28;20052;-53
2022/03/16 11:19:05;;;;;;;25.55;16.60;;;435.60;1254.40;;;;;;4993015;28;20473;-53
2022/03/16 11:21:59;;;;;;;26.40;13.40;;;435.60;1254.40;;;;;;4992915;28;20026;-53
2022/03/16 11:24:29;;;;;;;17.45;11.07;;;435.30;1254.40;;;;;;4992911;28;20046;-53
2022/03/16 11:27:21;;;;;;;23.25;14.98;;;435.40;1254.40;;;;;;4993160;28;20796;-53
2022/03/16 11:30:01;;;;;;;35.15;26.15;;;435.60;1254.40;;;;;;4990993;28;20034;-52
2022/03/16 11:32:34;;;;;;;35.95;24.75;;;435.50;1280.00;;;;;;4990253;28;20026;-54
2022/03/16 11:35:00;;;;;;;47.08;26.52;;;435.30;1280.00;;;;;;4973864;28;20062;-53
2022/03/16 11:37:36;;;;;;;35.80;24.38;;;435.20;1331.20;;;;;;4991026;28;20121;-53
2022/03/16 11:40:09;;;;;;;39.72;22.27;;;435.20;1331.20;;;;;;4991211;28;20034;-54
2022/03/16 11:42:36;;;;;;;40.33;19.90;;;409.90;1433.60;;;;;;4990178;28;20046;-57
2022/03/16 11:45:36;;;;;;;31.40;22.60;;;384.80;1510.40;;;;;;4991147;28;20116;-53
2022/03/16 11:48:31;;;;;;;38.85;24.08;;;409.80;1510.40;;;;;;4991067;28;20472;-54
2022/03/16 11:51:08;;;;;;;40.03;25.15;;;410.00;1510.40;;;;;;4983938;28;20045;-54
2022/03/16 11:54:07;;;;;;;28.42;19.80;;;410.20;1484.80;;;;;;4990983;28;20038;-53
2022/03/16 11:56:36;;;;;;;33.22;23.58;;;410.00;1510.40;;;;;;4990212;28;20388;-53
2022/03/16 11:59:06;;;;;;;34.65;23.55;;;410.10;1510.40;;;;;;4990458;28;20023;-53
2022/03/16 12:01:39;;;;;;;27.52;18.80;;;410.20;1459.20;;;;;;4991973;28;20044;-53
2022/03/16 12:04:12;;;;;;;34.45;19.55;;;409.80;1484.80;;;;;;4992528;28;20055;-54
2022/03/16 12:06:54;;;;;;;24.27;16.92;;;409.80;1484.80;;;;;;4992124;28;20118;-53